Bradley, AR

8:48 PM CST on February 27, 2015 (GMT -0600)
Texarkana Regional-Webb | Change Station
CLOSE
Current Station
Airport
Location: Texarkana,
Elevation: 387 ft
Nearby Weather Stations

Elev 387 ft 33.45 °N, 93.99 °W | Updated 55 minutes ago

Overcast
Overcast
30 °F
Feels Like 22 °F
N
8
Wind Variable Wind from ENE

Today
High -- | Low -- °F
--% Chance of Precip.
Yesterday
High -- | Low -- °F
Precip. -- in
6:45 AM 6:09 PM
Waxing Gibbous, 73% visible
Pressure 30.48 in
Visibility 10.0 miles
Clouds Few 5500 ft
Scattered Clouds 7000 ft
Overcast 8500 ft
Windchill 22 °F
Dew Point 16 °F
Humidity 56%
Rainfall 0.00 in
Snow Depth Not available.
UV 0 out of 12
Pollen 5.00 out of 12
Air Quality Not available.
Flu Activity Not available.
METAR KTXK 280153Z 07007KT 10SM FEW055 SCT070 OVC085 M01/M09 A3047 RMK AO2 SLP321 T10111089

More Conditions Fewer Conditions

Pressure 30.48 in
Visibility 10.0 miles
Clouds Few 5500 ft
Scattered Clouds 7000 ft
Overcast 8500 ft
Windchill 22 °F
Dew Point 16 °F
Humidity 56%
Rainfall 0.00 in
Snow Depth Not available.
UV 0 out of 12
Pollen 5.00 out of 12
Air Quality Not available.
Flu Activity Not available.
METAR KTXK 280153Z 07007KT 10SM FEW055 SCT070 OVC085 M01/M09 A3047 RMK AO2 SLP321 T10111089

More Conditions Fewer Conditions

Nowcast | as of 7:44 PM CST on February 27, 2015

Scattered areas of light snow will be possible along the Interstate 30 corridor of northeast Texas and southwest Arkansas...through the remainder of the evening. Although little to no accumulation is expected...the melting snow may create wet spots especially on bridges and overpasses...where refreezing may occurs...as temperatures will remain just below the freezing mark this evening. Motorists should use caution when traveling across these areas tonight.

×

10-Day Weather Forecast

Almanac

Astronomy

Feb. 27, 2015 Rise Set
Actual Time
Civil Twilight
Nautical Twilight
Astronomical Twilight
Moon
Length of Visible Light
Length of Day
Tomorrow will be .
, % of the Moon is Illuminated

Today's Extremes

State Highs State Lows

Community

WunderPhotos

Upload Photos

1,800,943 photos uploaded!

WunderBlogs® & News

Nearby

Air Quality

  Air Quality AQ Index Pollutant
Not available.

Snow Depth

Station Depth Elevation

Earthquake Activity

City Distance Mag. Time & Date
Minimum magnitude displayed is 2.5.

Coastal Water Temperatures

Place Temperature

Nearby Weather Stations